createdAt,value
2017-04-14T00:00:02.521Z,17.60
2017-04-14T00:01:02.369Z,16.12
2017-04-14T00:02:01.767Z,16.45
2017-04-14T00:03:01.328Z,12.60
2017-04-14T00:04:00.842Z,15.95
2017-04-14T00:05:00.377Z,23.15
2017-04-14T00:05:59.853Z,18.63
2017-04-14T00:06:59.222Z,15.97
2017-04-14T00:07:58.663Z,17.43
2017-04-14T00:08:58.036Z,14.27
2017-04-14T00:09:57.440Z,18.20
2017-04-14T00:10:57.034Z,20.17
2017-04-14T00:11:56.330Z,12.82
2017-04-14T00:12:55.727Z,17.85
2017-04-14T00:13:55.152Z,16.22
2017-04-14T00:14:54.532Z,15.10
2017-04-14T00:15:53.853Z,20.33
2017-04-14T00:16:53.428Z,10.87
2017-04-14T00:17:52.915Z,15.72
2017-04-14T00:18:52.547Z,14.22
2017-04-14T00:19:52.698Z,17.23
2017-04-14T00:20:52.174Z,13.95
2017-04-14T00:21:51.597Z,18.68
2017-04-14T00:22:51.106Z,16.23
2017-04-14T00:23:50.508Z,17.48
2017-04-14T00:24:50.035Z,20.20
2017-04-14T00:25:49.567Z,16.65
2017-04-14T00:26:48.978Z,12.18
2017-04-14T00:27:48.402Z,25.92
2017-04-14T00:28:48.771Z,9.82
2017-04-14T00:29:48.211Z,14.32
2017-04-14T00:30:48.363Z,21.42
2017-04-14T00:31:47.737Z,21.57
2017-04-14T00:32:47.189Z,14.65
2017-04-14T00:33:46.952Z,23.38
2017-04-14T00:34:46.468Z,21.77
2017-04-14T00:35:45.796Z,17.83
2017-04-14T00:36:45.202Z,13.00
2017-04-14T00:37:44.624Z,19.85
2017-04-14T00:38:44.089Z,14.53
2017-04-14T00:39:43.511Z,16.82
2017-04-14T00:40:42.927Z,17.58
2017-04-14T00:41:42.442Z,20.90
2017-04-14T00:42:41.893Z,24.98
2017-04-14T00:43:41.322Z,22.40
2017-04-14T00:44:40.706Z,15.03
2017-04-14T00:45:40.183Z,19.35
2017-04-14T00:46:39.587Z,18.00
2017-04-14T00:47:39.158Z,17.00
2017-04-14T00:48:38.569Z,20.00
2017-04-14T00:49:37.973Z,22.37
2017-04-14T00:50:37.411Z,22.92
2017-04-14T00:51:37.651Z,20.12
2017-04-14T00:52:37.216Z,15.50
2017-04-14T00:53:36.600Z,22.83
2017-04-14T00:54:36.035Z,19.63
2017-04-14T00:55:35.427Z,20.45
2017-04-14T00:56:34.757Z,22.48
2017-04-14T00:57:34.119Z,19.82
2017-04-14T00:58:33.556Z,14.07
2017-04-14T00:59:32.969Z,20.35
2017-04-14T01:00:32.433Z,17.83
2017-04-14T01:01:31.812Z,17.97
2017-04-14T01:02:31.178Z,19.88
2017-04-14T01:03:31.337Z,23.17
2017-04-14T01:04:30.503Z,16.93
2017-04-14T01:05:29.620Z,13.17
2017-04-14T01:06:28.741Z,20.62
2017-04-14T01:07:27.853Z,16.80
2017-04-14T01:08:26.962Z,14.72
2017-04-14T01:09:26.065Z,18.25
2017-04-14T01:10:25.205Z,20.35
2017-04-14T01:11:24.304Z,13.07
2017-04-14T01:12:23.430Z,22.65
2017-04-14T01:13:22.537Z,19.72
2017-04-14T01:14:21.662Z,13.65
2017-04-14T01:15:20.800Z,18.50
2017-04-14T01:16:20.093Z,16.03
2017-04-14T01:17:19.185Z,18.40
2017-04-14T01:18:18.329Z,23.07
2017-04-14T01:19:17.449Z,21.82
2017-04-14T01:20:16.581Z,17.42
2017-04-14T01:21:15.694Z,19.15
2017-04-14T01:22:14.862Z,25.85
2017-04-14T01:23:14.025Z,17.62
2017-04-14T01:24:13.945Z,19.07
2017-04-14T01:25:13.083Z,13.17
2017-04-14T01:26:12.194Z,15.57
2017-04-14T01:27:11.343Z,18.85
2017-04-14T01:28:10.485Z,17.47
2017-04-14T01:29:09.616Z,17.87
2017-04-14T01:30:08.774Z,14.48
2017-04-14T01:31:07.954Z,20.53
2017-04-14T01:32:07.088Z,16.82
2017-04-14T01:33:06.209Z,17.50
2017-04-14T01:34:06.450Z,16.22
2017-04-14T01:35:05.582Z,18.38
2017-04-14T01:36:04.730Z,18.42
2017-04-14T01:37:03.882Z,15.07
2017-04-14T01:38:03.095Z,30.10
2017-04-14T01:39:02.290Z,20.48
2017-04-14T01:40:01.446Z,18.70
2017-04-14T01:41:01.322Z,16.78
2017-04-14T01:42:00.439Z,14.53
2017-04-14T01:42:59.578Z,20.95
2017-04-14T01:43:58.721Z,21.25
2017-04-14T01:44:57.842Z,18.75
2017-04-14T01:45:57.058Z,17.92
2017-04-14T01:46:56.218Z,16.87
2017-04-14T01:47:55.331Z,20.58
2017-04-14T01:48:54.449Z,15.62
2017-04-14T01:49:53.590Z,18.37
2017-04-14T01:50:52.723Z,16.50
2017-04-14T01:51:51.863Z,18.35
2017-04-14T01:52:51.003Z,17.92
2017-04-14T01:53:50.143Z,21.57
2017-04-14T01:54:49.262Z,15.45
2017-04-14T01:55:49.114Z,20.48
2017-04-14T01:56:48.274Z,18.97
2017-04-14T01:57:47.446Z,20.00
2017-04-14T01:58:46.576Z,18.38
2017-04-14T01:59:45.706Z,17.78
2017-04-14T02:00:45.562Z,19.35
2017-04-14T02:01:44.707Z,20.38
2017-04-14T02:02:43.918Z,21.58
2017-04-14T02:03:43.123Z,17.02
2017-04-14T02:04:42.254Z,21.12
2017-04-14T02:05:41.722Z,24.27
2017-04-14T02:06:40.850Z,24.83
2017-04-14T02:07:40.756Z,25.58
2017-04-14T02:08:39.878Z,21.60
2017-04-14T02:09:39.035Z,24.02
2017-04-14T02:10:38.151Z,19.33
2017-04-14T02:11:37.266Z,24.98
2017-04-14T02:12:36.390Z,24.75
2017-04-14T02:13:35.514Z,21.52
2017-04-14T02:14:34.670Z,26.78
2017-04-14T02:15:33.862Z,18.98
2017-04-14T02:16:32.978Z,20.92
2017-04-14T02:17:32.135Z,20.98
2017-04-14T02:18:31.290Z,26.78
2017-04-14T02:19:30.407Z,22.33
2017-04-14T02:20:29.530Z,25.03
2017-04-14T02:21:28.709Z,23.10
2017-04-14T02:22:27.830Z,24.80
2017-04-14T02:23:26.951Z,23.70
2017-04-14T02:24:26.075Z,25.35
2017-04-14T02:25:25.217Z,19.08
2017-04-14T02:26:24.338Z,23.50
2017-04-14T02:27:23.490Z,25.83
2017-04-14T02:28:22.625Z,27.10
2017-04-14T02:29:21.762Z,23.33
2017-04-14T02:30:20.875Z,21.87
2017-04-14T02:31:19.993Z,23.07
2017-04-14T02:32:19.122Z,24.10
2017-04-14T02:33:18.282Z,27.53
2017-04-14T02:34:17.414Z,28.55
2017-04-14T02:35:16.550Z,28.05
2017-04-14T02:36:15.667Z,26.35
2017-04-14T02:37:14.798Z,22.63
2017-04-14T02:38:13.943Z,22.72
2017-04-14T02:39:13.115Z,22.40
2017-04-14T02:40:12.235Z,26.07
2017-04-14T02:41:11.346Z,26.28
2017-04-14T02:42:10.466Z,22.80
2017-04-14T02:43:10.368Z,32.83
2017-04-14T02:44:09.486Z,33.62
2017-04-14T02:45:08.667Z,23.08
2017-04-14T02:46:07.792Z,30.72
2017-04-14T02:47:06.916Z,25.03
2017-04-14T02:48:06.021Z,23.65
2017-04-14T02:49:05.170Z,26.98
2017-04-14T02:50:04.310Z,26.43
2017-04-14T02:51:03.442Z,29.87
2017-04-14T02:52:02.563Z,26.32
2017-04-14T02:53:01.684Z,35.57
2017-04-14T02:54:00.798Z,24.68
2017-04-14T02:54:59.910Z,21.63
2017-04-14T02:55:59.787Z,26.80
2017-04-14T02:56:59.347Z,24.25
2017-04-14T02:57:59.450Z,31.22
2017-04-14T02:58:58.563Z,32.78
2017-04-14T02:59:57.703Z,31.78
2017-04-14T03:00:56.842Z,29.12
2017-04-14T03:01:55.962Z,28.35
2017-04-14T03:02:55.114Z,25.88
2017-04-14T03:03:54.235Z,30.67
2017-04-14T03:04:53.355Z,25.22
2017-04-14T03:05:52.486Z,31.95
2017-04-14T03:06:51.609Z,26.80
2017-04-14T03:07:51.466Z,35.77
2017-04-14T03:08:50.737Z,37.32
2017-04-14T03:09:49.862Z,31.80
2017-04-14T03:10:48.979Z,30.77
2017-04-14T03:11:48.103Z,38.55
2017-04-14T03:12:47.226Z,39.23
2017-04-14T03:13:46.344Z,29.50
2017-04-14T03:14:45.505Z,29.30
2017-04-14T03:15:44.614Z,34.70
2017-04-14T03:16:43.742Z,36.13
2017-04-14T03:17:42.854Z,26.15
2017-04-14T03:18:41.967Z,33.62
2017-04-14T03:19:41.092Z,34.10
2017-04-14T03:20:40.370Z,39.57
2017-04-14T03:21:39.487Z,27.90
2017-04-14T03:22:39.371Z,27.35
2017-04-14T03:23:38.490Z,34.52
2017-04-14T03:24:37.610Z,28.32
2017-04-14T03:25:36.731Z,34.88
2017-04-14T03:26:35.898Z,33.23
2017-04-14T03:27:35.017Z,35.02
2017-04-14T03:28:34.137Z,35.72
2017-04-14T03:29:33.241Z,37.98
2017-04-14T03:30:32.362Z,36.12
2017-04-14T03:31:31.474Z,36.77
2017-04-14T03:32:30.634Z,31.80
2017-04-14T03:33:29.800Z,35.57
2017-04-14T03:34:28.914Z,32.50
2017-04-14T03:35:28.039Z,34.42
2017-04-14T03:36:27.170Z,33.55
2017-04-14T03:37:26.306Z,32.68
2017-04-14T03:38:25.546Z,39.07
2017-04-14T03:39:24.733Z,34.33
2017-04-14T03:40:23.890Z,29.92
2017-04-14T03:41:23.005Z,38.07
2017-04-14T03:42:22.113Z,39.83
2017-04-14T03:43:21.222Z,41.03
2017-04-14T03:44:20.378Z,37.23
2017-04-14T03:45:19.501Z,36.05
2017-04-14T03:46:18.658Z,37.32
2017-04-14T03:47:17.799Z,32.20
2017-04-14T03:48:16.913Z,36.45
2017-04-14T03:49:16.028Z,33.35
2017-04-14T03:50:15.182Z,31.30
2017-04-14T03:51:14.302Z,32.22
2017-04-14T03:52:13.418Z,29.70
2017-04-14T03:53:12.543Z,33.20
2017-04-14T03:54:11.662Z,40.72
2017-04-14T03:55:10.794Z,40.23
2017-04-14T03:56:09.942Z,38.17
2017-04-14T03:57:09.042Z,36.20
2017-04-14T03:58:08.171Z,30.70
2017-04-14T03:59:07.282Z,31.62
2017-04-14T04:00:06.410Z,35.03
2017-04-14T04:01:05.519Z,40.37
2017-04-14T04:02:04.666Z,38.62
2017-04-14T04:03:03.816Z,36.43
2017-04-14T04:04:02.930Z,32.50
2017-04-14T04:05:02.062Z,41.75
2017-04-14T04:06:01.183Z,36.15
2017-04-14T04:07:00.314Z,39.10
2017-04-14T04:08:00.202Z,45.73
2017-04-14T04:08:59.331Z,42.55
2017-04-14T04:09:58.460Z,39.52
2017-04-14T04:10:57.591Z,41.65
2017-04-14T04:11:56.711Z,48.22
2017-04-14T04:12:55.827Z,43.33
2017-04-14T04:13:55.199Z,41.47
2017-04-14T04:14:54.322Z,44.03
2017-04-14T04:15:53.446Z,40.65
2017-04-14T04:16:52.578Z,34.73
2017-04-14T04:17:51.695Z,28.40
2017-04-14T04:18:51.562Z,34.72
2017-04-14T04:19:51.435Z,37.33
2017-04-14T04:20:50.558Z,39.68
2017-04-14T04:21:49.694Z,31.70
2017-04-14T04:22:48.882Z,37.53
2017-04-14T04:23:48.008Z,37.82
2017-04-14T04:24:47.127Z,37.48
2017-04-14T04:25:47.021Z,42.32
2017-04-14T04:26:46.146Z,38.38
2017-04-14T04:27:45.278Z,35.33
2017-04-14T04:28:44.394Z,38.32
2017-04-14T04:29:43.512Z,43.82
2017-04-14T04:30:42.665Z,36.15
2017-04-14T04:32:45.034Z,44.27
2017-04-14T04:33:49.367Z,33.97
2017-04-14T04:34:48.490Z,35.98
2017-04-14T04:35:47.607Z,35.98
2017-04-14T04:36:47.474Z,44.05
2017-04-14T04:37:46.783Z,35.00
2017-04-14T04:38:45.907Z,38.37
2017-04-14T04:39:45.022Z,37.95
2017-04-14T04:40:44.146Z,37.48
2017-04-14T04:41:43.277Z,39.30
2017-04-14T04:42:42.393Z,42.65
2017-04-14T04:43:41.629Z,40.33
2017-04-14T04:44:41.499Z,31.55
2017-04-14T04:45:40.610Z,51.45
2017-04-14T04:46:40.546Z,35.68
2017-04-14T04:47:40.043Z,39.57
2017-04-14T04:48:39.158Z,34.70
2017-04-14T04:49:38.554Z,30.02
2017-04-14T04:50:37.703Z,45.07
2017-04-14T04:51:36.827Z,37.78
2017-04-14T04:52:35.979Z,33.42
2017-04-14T04:53:35.110Z,33.27
2017-04-14T04:54:34.226Z,36.60
2017-04-14T04:55:34.133Z,34.70
2017-04-14T04:56:33.250Z,34.83
2017-04-14T04:57:32.370Z,34.30
2017-04-14T04:58:31.482Z,37.55
2017-04-14T04:59:30.609Z,35.05
2017-04-14T05:00:29.737Z,33.25
2017-04-14T05:01:28.886Z,40.65
2017-04-14T05:02:28.007Z,38.78
2017-04-14T05:03:27.126Z,36.83
2017-04-14T05:04:26.982Z,34.75
2017-04-14T05:05:26.097Z,35.82
2017-04-14T05:06:25.229Z,39.97
2017-04-14T05:07:24.393Z,34.88
2017-04-14T05:08:24.246Z,30.35
2017-04-14T05:09:23.355Z,40.33
2017-04-14T05:10:22.479Z,35.38
2017-04-14T05:11:21.595Z,36.10
2017-04-14T05:12:20.719Z,40.62
2017-04-14T05:13:19.958Z,32.53
2017-04-14T05:14:19.074Z,33.95
2017-04-14T05:15:18.187Z,32.17
2017-04-14T05:16:17.345Z,35.92
2017-04-14T05:17:16.462Z,37.73
2017-04-14T05:18:15.581Z,32.85
2017-04-14T05:19:14.746Z,32.92
2017-04-14T05:20:13.873Z,33.90
2017-04-14T05:21:12.994Z,32.95
2017-04-14T05:22:12.134Z,37.75
2017-04-14T05:23:11.256Z,29.63
2017-04-14T05:24:11.122Z,37.13
2017-04-14T05:25:10.351Z,28.72
2017-04-14T05:26:09.461Z,32.70
2017-04-14T05:27:08.578Z,33.47
2017-04-14T05:28:07.723Z,31.93
2017-04-14T05:29:06.835Z,33.38
2017-04-14T05:30:05.954Z,32.23
2017-04-14T05:31:05.170Z,37.95
2017-04-14T05:32:04.371Z,35.37
2017-04-14T05:33:03.481Z,35.73
2017-04-14T05:34:03.344Z,28.38
2017-04-14T05:35:02.472Z,29.63
2017-04-14T05:36:02.364Z,31.20
2017-04-14T05:37:02.362Z,35.60
2017-04-14T05:38:01.478Z,34.68
2017-04-14T05:39:00.598Z,29.12
2017-04-14T05:39:59.706Z,30.02
2017-04-14T05:40:58.844Z,31.45
2017-04-14T05:41:57.954Z,32.12
2017-04-14T05:42:57.871Z,31.83
2017-04-14T05:43:57.031Z,34.07
2017-04-14T05:44:56.154Z,32.77
2017-04-14T05:45:55.377Z,37.08
2017-04-14T05:46:56.215Z,31.68
2017-04-14T05:47:55.367Z,33.68
2017-04-14T05:48:54.565Z,39.43
2017-04-14T05:49:53.719Z,33.32
2017-04-14T05:50:52.884Z,37.12
2017-04-14T05:51:52.211Z,31.63
2017-04-14T05:52:51.367Z,34.67
2017-04-14T05:53:50.522Z,38.23
2017-04-14T05:54:50.542Z,42.65
2017-04-14T05:55:49.700Z,35.62
2017-04-14T05:56:49.060Z,29.88
2017-04-14T05:57:48.427Z,37.37
2017-04-14T05:58:47.826Z,32.72
2017-04-14T05:59:47.204Z,40.92
2017-04-14T06:00:46.861Z,34.80
2017-04-14T06:01:46.233Z,28.92
2017-04-14T06:02:45.613Z,32.95
2017-04-14T06:03:45.105Z,32.70
2017-04-14T06:04:44.569Z,33.72
2017-04-14T06:05:44.022Z,32.73
2017-04-14T06:06:43.433Z,36.65
2017-04-14T06:07:42.801Z,36.42
2017-04-14T06:08:42.500Z,37.22
2017-04-14T06:09:42.210Z,28.23
2017-04-14T06:10:41.767Z,36.78
2017-04-14T06:11:41.393Z,34.23
2017-04-14T06:12:40.848Z,29.40
2017-04-14T06:13:40.374Z,34.80
2017-04-14T06:14:40.007Z,32.95
2017-04-14T06:15:40.267Z,36.02
2017-04-14T06:16:39.575Z,37.08
2017-04-14T06:17:38.926Z,29.65
2017-04-14T06:18:38.323Z,37.08
2017-04-14T06:19:37.799Z,36.65
2017-04-14T06:20:37.201Z,32.35
2017-04-14T06:21:36.604Z,33.53
2017-04-14T06:22:36.043Z,34.10
2017-04-14T06:23:35.378Z,33.20
2017-04-14T06:24:34.804Z,33.33
2017-04-14T06:25:34.219Z,30.63
2017-04-14T06:26:33.591Z,31.20
2017-04-14T06:27:32.987Z,29.87
2017-04-14T06:28:32.386Z,36.90
2017-04-14T06:29:31.789Z,32.58
2017-04-14T06:30:31.265Z,31.88
2017-04-14T06:31:30.678Z,32.33
2017-04-14T06:32:30.189Z,29.80
2017-04-14T06:33:30.355Z,37.40
2017-04-14T06:34:29.764Z,38.00
2017-04-14T06:35:29.132Z,28.42
2017-04-14T06:36:28.695Z,33.37
2017-04-14T06:37:28.153Z,36.32
2017-04-14T06:38:27.583Z,33.05
2017-04-14T06:39:27.030Z,35.60
2017-04-14T06:40:26.457Z,29.92
2017-04-14T06:41:26.414Z,30.53
2017-04-14T06:42:25.966Z,32.43
2017-04-14T06:43:26.186Z,33.12
2017-04-14T06:44:26.271Z,33.08
2017-04-14T06:45:25.754Z,33.27
2017-04-14T06:46:25.205Z,33.95
2017-04-14T06:47:24.668Z,35.38
2017-04-14T06:48:24.802Z,33.07
2017-04-14T06:49:24.193Z,33.47
2017-04-14T06:50:23.531Z,34.40
2017-04-14T06:51:23.576Z,32.12
2017-04-14T06:52:22.950Z,36.47
2017-04-14T06:53:22.353Z,31.82
2017-04-14T06:54:21.844Z,37.85
2017-04-14T06:55:21.183Z,31.45
2017-04-14T06:56:20.883Z,37.50
2017-04-14T06:57:20.283Z,35.08
2017-04-14T06:58:19.644Z,32.80
2017-04-14T06:59:19.053Z,32.10
2017-04-14T07:00:18.616Z,34.12
2017-04-14T07:01:18.756Z,28.35
2017-04-14T07:02:18.224Z,31.17
2017-04-14T07:03:17.584Z,34.33
2017-04-14T07:04:17.683Z,31.30
2017-04-14T07:05:17.139Z,36.37
2017-04-14T07:06:16.594Z,28.65
2017-04-14T07:07:15.966Z,34.98
2017-04-14T07:08:15.304Z,31.87
2017-04-14T07:09:15.412Z,30.95
2017-04-14T07:10:14.744Z,32.25
2017-04-14T07:11:14.056Z,31.47
2017-04-14T07:12:13.471Z,36.25
2017-04-14T07:13:13.619Z,30.15
2017-04-14T07:14:13.012Z,32.17
2017-04-14T07:15:12.468Z,34.97
2017-04-14T07:16:11.947Z,35.93
2017-04-14T07:17:11.242Z,34.83
2017-04-14T07:18:10.769Z,37.33
2017-04-14T07:19:10.144Z,35.37
2017-04-14T07:20:09.544Z,33.65
2017-04-14T07:21:09.252Z,32.65
2017-04-14T07:22:08.724Z,34.37
2017-04-14T07:23:08.070Z,30.92
2017-04-14T07:24:07.365Z,31.13
2017-04-14T07:25:06.687Z,36.85
2017-04-14T07:26:06.633Z,31.60
2017-04-14T07:27:06.038Z,29.47
2017-04-14T07:28:05.470Z,33.83
2017-04-14T07:29:05.687Z,35.07
2017-04-14T07:30:05.492Z,31.20
2017-04-14T07:31:05.019Z,32.00
2017-04-14T07:32:05.325Z,32.67
2017-04-14T07:33:04.922Z,31.45
2017-04-14T07:34:04.450Z,36.28
2017-04-14T07:35:04.029Z,30.13
2017-04-14T07:36:04.417Z,32.48
2017-04-14T07:37:04.074Z,34.07
2017-04-14T07:38:03.455Z,30.58
2017-04-14T07:39:02.807Z,29.92
2017-04-14T07:40:02.172Z,34.08
2017-04-14T07:41:01.641Z,32.57
2017-04-14T07:42:01.255Z,31.45
2017-04-14T07:43:00.899Z,31.22
2017-04-14T07:44:01.072Z,36.40
2017-04-14T07:45:00.414Z,34.58
2017-04-14T07:45:59.871Z,33.37
2017-04-14T07:46:59.038Z,35.27
2017-04-14T07:47:58.794Z,26.10
2017-04-14T07:48:58.155Z,28.77
2017-04-14T07:49:57.490Z,28.90
2017-04-14T07:50:57.042Z,32.38
2017-04-14T07:51:56.640Z,33.73
2017-04-14T07:52:56.461Z,33.08
2017-04-14T07:53:56.950Z,33.23
2017-04-14T07:54:56.323Z,38.13
2017-04-14T07:55:55.790Z,30.80
2017-04-14T07:56:55.320Z,32.98
2017-04-14T07:57:54.662Z,32.45
2017-04-14T07:58:54.806Z,33.43
2017-04-14T07:59:54.337Z,89.87
2017-04-14T08:00:53.836Z,39.02
2017-04-14T08:01:53.265Z,29.45
2017-04-14T08:02:52.657Z,31.67
2017-04-14T08:03:52.097Z,27.55
2017-04-14T08:04:51.686Z,34.92
2017-04-14T08:05:51.311Z,31.43
2017-04-14T08:06:51.208Z,31.97
2017-04-14T08:07:51.138Z,29.72
2017-04-14T08:08:50.700Z,33.82
2017-04-14T08:09:50.247Z,35.88
2017-04-14T08:10:49.658Z,29.83
2017-04-14T08:11:49.305Z,32.40
2017-04-14T08:12:49.628Z,32.37
2017-04-14T08:13:49.190Z,33.65
2017-04-14T08:14:48.680Z,32.75
2017-04-14T08:15:48.384Z,32.28
2017-04-14T08:16:48.084Z,28.97
2017-04-14T08:17:47.784Z,28.60
2017-04-14T08:18:47.320Z,31.08
2017-04-14T08:19:46.775Z,29.55
2017-04-14T08:20:46.269Z,32.07
2017-04-14T08:21:45.953Z,31.25
2017-04-14T08:22:46.109Z,33.63
2017-04-14T08:23:46.740Z,33.02
2017-04-14T08:24:47.753Z,31.27
2017-04-14T08:25:48.706Z,33.85
2017-04-14T08:26:48.233Z,29.80
2017-04-14T08:27:47.855Z,29.18
2017-04-14T08:28:47.538Z,25.37
2017-04-14T08:29:47.049Z,32.92
2017-04-14T08:30:47.365Z,29.17
2017-04-14T08:31:46.863Z,25.35
2017-04-14T08:32:46.472Z,35.95
2017-04-14T08:33:45.972Z,35.10
2017-04-14T08:34:46.584Z,29.28
2017-04-14T08:35:46.179Z,33.27
2017-04-14T08:36:45.664Z,28.90
2017-04-14T08:37:45.116Z,28.05
2017-04-14T08:38:44.607Z,29.98
2017-04-14T08:39:44.130Z,33.63
2017-04-14T08:40:43.852Z,29.47
2017-04-14T08:41:43.440Z,35.35
2017-04-14T08:42:42.955Z,30.12
2017-04-14T08:43:42.439Z,28.27
2017-04-14T08:44:42.016Z,30.88
2017-04-14T08:45:41.888Z,28.52
2017-04-14T08:46:42.049Z,30.97
2017-04-14T08:47:41.747Z,31.15
2017-04-14T08:48:41.183Z,31.23
2017-04-14T08:49:40.676Z,28.18
2017-04-14T08:50:40.456Z,34.43
2017-04-14T08:51:41.058Z,35.58
2017-04-14T08:52:41.393Z,31.82
2017-04-14T08:53:41.734Z,25.97
2017-04-14T08:54:41.133Z,29.70
2017-04-14T08:55:40.562Z,31.33
2017-04-14T08:56:40.311Z,27.05
2017-04-14T08:57:40.486Z,28.75
2017-04-14T08:58:39.998Z,30.45
2017-04-14T08:59:39.799Z,27.52
2017-04-14T09:00:40.166Z,34.90
2017-04-14T09:01:39.500Z,31.68
2017-04-14T09:02:38.818Z,32.13
2017-04-14T09:03:38.279Z,28.10
2017-04-14T09:04:37.825Z,32.90
2017-04-14T09:05:37.164Z,32.22
2017-04-14T09:06:36.736Z,28.92
2017-04-14T09:07:36.068Z,28.32
2017-04-14T09:08:35.433Z,29.95
2017-04-14T09:09:35.044Z,28.92
2017-04-14T09:10:34.740Z,29.13
2017-04-14T09:11:33.988Z,31.00
2017-04-14T09:12:33.434Z,30.67
2017-04-14T09:13:40.169Z,34.50
2017-04-14T09:14:40.664Z,31.47
2017-04-14T09:15:40.108Z,32.22
2017-04-14T09:16:39.423Z,28.15
2017-04-14T09:17:38.891Z,29.05
2017-04-14T09:18:38.341Z,31.40
2017-04-14T09:19:37.851Z,28.52
2017-04-14T09:20:37.372Z,28.52
2017-04-14T09:21:36.865Z,31.42
2017-04-14T09:22:36.391Z,29.02
2017-04-14T09:23:35.758Z,31.87
2017-04-14T09:24:35.248Z,27.33
2017-04-14T09:25:34.650Z,30.10
2017-04-14T09:26:34.411Z,35.32
2017-04-14T09:27:33.918Z,31.48
2017-04-14T09:28:33.340Z,28.23
2017-04-14T09:29:32.825Z,33.97
2017-04-14T09:30:32.359Z,35.95
2017-04-14T09:31:32.944Z,30.23
2017-04-14T09:32:33.287Z,30.75
2017-04-14T09:33:32.671Z,29.53
2017-04-14T09:34:32.761Z,27.88
2017-04-14T09:35:32.179Z,31.47
2017-04-14T09:36:32.306Z,30.63
2017-04-14T09:37:31.757Z,28.70
2017-04-14T09:38:31.394Z,34.18
2017-04-14T09:39:30.950Z,30.62
2017-04-14T09:40:30.365Z,30.73
2017-04-14T09:41:29.795Z,32.93
2017-04-14T09:42:29.233Z,31.18
2017-04-14T09:43:28.754Z,34.25
2017-04-14T09:44:28.834Z,33.42
2017-04-14T09:45:28.418Z,29.43
2017-04-14T09:46:27.855Z,29.95
2017-04-14T09:47:28.147Z,35.18
2017-04-14T09:48:27.602Z,28.12
2017-04-14T09:49:26.958Z,34.03
2017-04-14T09:50:26.737Z,33.78
2017-04-14T09:51:26.292Z,30.58
2017-04-14T09:52:25.998Z,37.03
2017-04-14T09:53:25.576Z,33.38
2017-04-14T09:54:25.113Z,37.20
2017-04-14T09:55:24.597Z,32.72
2017-04-14T09:56:24.501Z,34.28
2017-04-14T09:57:23.851Z,31.58
2017-04-14T09:58:23.275Z,33.77
2017-04-14T09:59:22.615Z,31.20
2017-04-14T10:00:22.289Z,31.63
2017-04-14T10:01:21.619Z,35.47
2017-04-14T10:02:21.093Z,34.90
2017-04-14T10:03:20.689Z,33.62
2017-04-14T10:04:20.007Z,34.70
2017-04-14T10:05:19.554Z,35.70
2017-04-14T10:06:19.343Z,30.23
2017-04-14T10:07:18.961Z,35.70
2017-04-14T10:08:18.578Z,27.85
2017-04-14T10:09:18.055Z,29.63
2017-04-14T10:10:17.464Z,29.98
2017-04-14T10:11:16.841Z,43.48
2017-04-14T10:12:16.342Z,29.17
2017-04-14T10:13:15.827Z,37.57
2017-04-14T10:14:15.403Z,30.83
2017-04-14T10:15:15.071Z,34.17
2017-04-14T10:16:14.545Z,28.98
2017-04-14T10:17:13.999Z,28.77
2017-04-14T10:18:13.585Z,33.50
2017-04-14T10:19:13.120Z,33.15
2017-04-14T10:20:13.390Z,28.33
2017-04-14T10:21:13.430Z,33.33
2017-04-14T10:22:12.825Z,31.87
2017-04-14T10:23:12.348Z,37.13
2017-04-14T10:24:12.585Z,33.73
2017-04-14T10:25:12.051Z,29.03
2017-04-14T10:26:11.919Z,28.53
2017-04-14T10:27:11.631Z,31.73
2017-04-14T10:28:10.972Z,31.82
2017-04-14T10:29:10.499Z,29.07
2017-04-14T10:30:09.892Z,30.85
2017-04-14T10:31:09.312Z,30.58
2017-04-14T10:32:09.343Z,28.70
2017-04-14T10:33:09.640Z,28.10
2017-04-14T10:34:09.147Z,32.40
2017-04-14T10:35:08.530Z,30.65
2017-04-14T10:36:08.019Z,30.42
2017-04-14T10:37:07.393Z,28.50
2017-04-14T10:38:07.149Z,29.70
2017-04-14T10:39:06.763Z,30.53
2017-04-14T10:40:06.175Z,27.10
2017-04-14T10:41:05.536Z,31.08
2017-04-14T10:42:05.046Z,31.05
2017-04-14T10:43:04.671Z,29.28
2017-04-14T10:44:04.127Z,27.85
2017-04-14T10:45:03.883Z,31.28
2017-04-14T10:46:03.568Z,34.87
2017-04-14T10:47:03.061Z,31.72
2017-04-14T10:48:02.383Z,27.82
2017-04-14T10:49:01.770Z,23.22
2017-04-14T10:50:02.300Z,29.30
2017-04-14T10:51:01.452Z,25.67
2017-04-14T10:52:00.778Z,24.55
2017-04-14T10:53:00.142Z,27.65
2017-04-14T10:53:59.882Z,30.77
2017-04-14T10:54:59.638Z,28.48
2017-04-14T10:56:00.059Z,31.63
2017-04-14T10:56:59.517Z,26.58
2017-04-14T10:57:59.030Z,28.25
2017-04-14T10:58:58.351Z,23.10
2017-04-14T10:59:58.152Z,24.15
2017-04-14T11:00:57.742Z,24.55
2017-04-14T11:01:57.670Z,28.87
2017-04-14T11:02:57.941Z,25.42
2017-04-14T11:03:57.427Z,30.52
2017-04-14T11:04:57.007Z,22.60
2017-04-14T11:05:56.647Z,23.25
2017-04-14T11:06:56.107Z,25.02
2017-04-14T11:07:55.600Z,26.87
2017-04-14T11:08:55.127Z,24.68
2017-04-14T11:09:54.802Z,21.70
2017-04-14T11:10:54.078Z,23.18
2017-04-14T11:11:53.721Z,27.13
2017-04-14T11:12:53.151Z,29.55
2017-04-14T11:13:53.216Z,21.10
2017-04-14T11:14:52.636Z,22.13
2017-04-14T11:15:53.007Z,23.43
2017-04-14T11:16:52.304Z,27.03
2017-04-14T11:17:51.888Z,24.18
2017-04-14T11:18:51.393Z,26.72
2017-04-14T11:19:51.264Z,26.53
2017-04-14T11:20:51.240Z,24.42
2017-04-14T11:21:50.681Z,27.48
2017-04-14T11:22:50.074Z,26.98
2017-04-14T11:23:49.803Z,28.13
2017-04-14T11:24:49.527Z,26.50
2017-04-14T11:25:48.903Z,27.33
2017-04-14T11:26:48.471Z,30.77
2017-04-14T11:27:47.939Z,29.63
2017-04-14T11:28:47.588Z,28.80
2017-04-14T11:29:47.323Z,30.73
2017-04-14T11:30:47.561Z,29.15
2017-04-14T11:31:47.768Z,32.20
2017-04-14T11:32:47.323Z,28.12
2017-04-14T11:33:46.935Z,30.77
2017-04-14T11:34:47.435Z,27.03
2017-04-14T11:35:47.894Z,30.82
2017-04-14T11:36:47.562Z,32.00
2017-04-14T11:37:47.455Z,33.98
2017-04-14T11:38:46.813Z,26.82
2017-04-14T11:39:46.338Z,31.42
2017-04-14T11:40:45.824Z,29.73
2017-04-14T11:41:45.347Z,30.83
2017-04-14T11:42:45.351Z,26.23
2017-04-14T11:43:44.857Z,28.23
2017-04-14T11:44:44.993Z,26.52
2017-04-14T11:45:44.402Z,29.55
2017-04-14T11:46:43.951Z,25.38
2017-04-14T11:47:43.477Z,26.30
2017-04-14T11:48:43.002Z,32.32
2017-04-14T11:49:42.818Z,25.28
2017-04-14T11:50:42.446Z,25.15
2017-04-14T11:51:42.794Z,37.30
2017-04-14T11:52:42.533Z,29.38
2017-04-14T11:53:42.101Z,29.60
2017-04-14T11:54:42.152Z,29.32
2017-04-14T11:55:41.833Z,28.78
2017-04-14T11:56:41.508Z,32.15
2017-04-14T11:57:41.560Z,26.82
2017-04-14T11:58:41.522Z,28.40
2017-04-14T11:59:41.199Z,27.95
2017-04-14T12:00:40.949Z,33.55
2017-04-14T12:01:40.752Z,28.32
2017-04-14T12:02:40.527Z,28.07
2017-04-14T12:03:40.361Z,28.85
2017-04-14T12:04:40.682Z,29.15
2017-04-14T12:05:42.131Z,25.15
2017-04-14T12:06:42.472Z,28.83
2017-04-14T12:07:42.197Z,29.95
2017-04-14T12:08:41.891Z,31.12
2017-04-14T12:09:42.207Z,29.83
2017-04-14T12:10:42.558Z,25.62
2017-04-14T12:11:42.322Z,25.93
2017-04-14T12:12:41.866Z,28.37
2017-04-14T12:13:41.488Z,30.47
2017-04-14T12:14:40.767Z,29.82
2017-04-14T12:15:41.047Z,29.27
2017-04-14T12:16:40.596Z,31.68
2017-04-14T12:17:40.047Z,27.00
2017-04-14T12:18:39.636Z,30.40
2017-04-14T12:19:39.187Z,26.12
2017-04-14T12:20:38.679Z,30.90
2017-04-14T12:21:38.028Z,28.98
2017-04-14T12:22:38.351Z,25.48
2017-04-14T12:23:37.739Z,30.57
2017-04-14T12:24:37.187Z,26.87
2017-04-14T12:25:36.833Z,34.85
2017-04-14T12:26:37.250Z,23.85
2017-04-14T12:27:36.595Z,29.70
2017-04-14T12:28:36.227Z,29.25
2017-04-14T12:29:35.712Z,32.68
2017-04-14T12:30:35.126Z,29.00
2017-04-14T12:31:34.861Z,31.43
2017-04-14T12:32:34.289Z,24.28
2017-04-14T12:33:33.553Z,29.35
2017-04-14T12:34:33.723Z,29.18
2017-04-14T12:35:33.160Z,28.97
2017-04-14T12:36:32.694Z,26.50
2017-04-14T12:37:32.282Z,25.23
2017-04-14T12:38:31.749Z,26.28
2017-04-14T12:39:31.288Z,23.60
2017-04-14T12:40:31.050Z,23.70
2017-04-14T12:41:30.792Z,24.65
2017-04-14T12:42:30.166Z,23.85
2017-04-14T12:43:29.764Z,27.92
2017-04-14T12:44:29.411Z,25.40
2017-04-14T12:45:28.977Z,25.93
2017-04-14T12:46:28.629Z,30.98